createdAt,value
2017-09-21T00:00:02.615Z,90.80
2017-09-21T00:02:30.995Z,90.70
2017-09-21T00:04:59.352Z,90.80
2017-09-21T00:07:27.537Z,90.70
2017-09-21T00:09:55.909Z,90.90
2017-09-21T00:12:24.270Z,91.00
2017-09-21T00:14:52.631Z,91.00
2017-09-21T00:17:20.983Z,90.90
2017-09-21T00:19:49.347Z,90.90
2017-09-21T00:22:17.711Z,90.80
2017-09-21T00:24:46.192Z,91.00
2017-09-21T00:27:14.562Z,91.10
2017-09-21T00:29:42.922Z,91.10
2017-09-21T00:32:12.043Z,91.20
2017-09-21T00:34:40.409Z,91.20
2017-09-21T00:37:08.778Z,91.20
2017-09-21T00:39:37.916Z,91.60
2017-09-21T00:42:06.270Z,91.60
2017-09-21T00:44:34.775Z,91.40
2017-09-21T00:47:03.207Z,91.50
2017-09-21T00:49:31.569Z,91.60
2017-09-21T00:52:00.706Z,91.70
2017-09-21T00:54:29.071Z,91.70
2017-09-21T00:56:57.091Z,91.50
2017-09-21T00:59:25.445Z,91.60
2017-09-21T01:01:53.815Z,91.60
2017-09-21T01:04:22.395Z,91.60
2017-09-21T01:06:50.743Z,91.50
2017-09-21T01:09:19.887Z,91.40
2017-09-21T01:11:48.251Z,91.40
2017-09-21T01:14:16.626Z,91.80
2017-09-21T01:16:44.994Z,91.70
2017-09-21T01:19:13.954Z,91.70
2017-09-21T01:21:43.099Z,91.90
2017-09-21T01:24:11.451Z,91.90
2017-09-21T01:26:40.035Z,91.70
2017-09-21T01:29:08.474Z,91.70
2017-09-21T01:31:36.478Z,91.50
2017-09-21T01:34:04.510Z,91.60
2017-09-21T01:36:33.644Z,91.80
2017-09-21T01:39:01.834Z,91.80
2017-09-21T01:41:29.506Z,91.80
2017-09-21T01:43:57.862Z,91.80
2017-09-21T01:46:25.894Z,91.80
2017-09-21T01:48:53.721Z,91.70
2017-09-21T01:51:21.225Z,91.80
2017-09-21T01:53:49.053Z,91.90
2017-09-21T01:56:16.890Z,92.00
2017-09-21T01:58:45.260Z,92.00
2017-09-21T02:01:13.616Z,91.90
2017-09-21T02:03:41.867Z,91.90
2017-09-21T02:06:09.747Z,91.90
2017-09-21T02:08:38.183Z,92.00
2017-09-21T02:11:06.398Z,92.00
2017-09-21T02:13:34.774Z,92.00
2017-09-21T02:16:03.353Z,91.80
2017-09-21T02:18:31.888Z,91.70
2017-09-21T02:20:59.898Z,92.00
2017-09-21T02:23:28.256Z,91.90
2017-09-21T02:25:56.660Z,91.90
2017-09-21T02:28:25.232Z,91.70
2017-09-21T02:30:53.712Z,91.70
2017-09-21T02:33:22.189Z,91.90
2017-09-21T02:35:50.533Z,92.10
2017-09-21T02:38:19.504Z,92.00
2017-09-21T02:40:47.861Z,92.00
2017-09-21T02:43:16.233Z,91.90
2017-09-21T02:45:45.118Z,91.70
2017-09-21T02:48:13.570Z,91.90
2017-09-21T02:50:41.997Z,91.70
2017-09-21T02:53:11.663Z,91.70
2017-09-21T02:55:41.530Z,91.80
2017-09-21T02:58:10.563Z,91.80
2017-09-21T03:00:38.923Z,91.70
2017-09-21T03:03:07.287Z,91.70
2017-09-21T03:05:35.742Z,91.90
2017-09-21T03:08:04.939Z,91.80
2017-09-21T03:10:33.307Z,91.80
2017-09-21T03:13:01.674Z,92.00
2017-09-21T03:15:30.039Z,91.70
2017-09-21T03:17:58.426Z,91.90
2017-09-21T03:20:26.799Z,91.90
2017-09-21T03:22:55.338Z,92.10
2017-09-21T03:25:23.692Z,91.80
2017-09-21T03:27:52.814Z,91.90
2017-09-21T03:30:21.289Z,91.80
2017-09-21T03:32:49.662Z,91.90
2017-09-21T03:35:18.022Z,92.00
2017-09-21T03:37:46.394Z,92.00
2017-09-21T03:40:14.578Z,92.00
2017-09-21T03:42:42.761Z,92.10
2017-09-21T03:45:11.127Z,91.80
2017-09-21T03:47:39.486Z,91.90
2017-09-21T03:50:07.880Z,91.80
2017-09-21T03:52:36.467Z,92.10
2017-09-21T03:55:04.840Z,92.00
2017-09-21T03:57:33.221Z,92.00
2017-09-21T04:00:01.591Z,91.80
2017-09-21T04:02:29.950Z,92.00
2017-09-21T04:04:58.305Z,91.90
2017-09-21T04:07:27.455Z,91.90
2017-09-21T04:09:55.828Z,91.80
2017-09-21T04:12:25.011Z,92.00
2017-09-21T04:14:53.355Z,91.80
2017-09-21T04:17:22.303Z,92.00
2017-09-21T04:19:50.487Z,91.90
2017-09-21T04:22:18.667Z,91.90
2017-09-21T04:24:46.846Z,91.90
2017-09-21T04:27:16.003Z,92.10
2017-09-21T04:29:44.366Z,92.00
2017-09-21T04:32:12.967Z,92.10
2017-09-21T04:34:41.620Z,92.10
2017-09-21T04:37:09.997Z,92.00
2017-09-21T04:39:38.167Z,91.90
2017-09-21T04:42:06.531Z,92.10
2017-09-21T04:44:34.903Z,92.10
2017-09-21T04:47:03.294Z,92.10
2017-09-21T04:49:31.753Z,92.10
2017-09-21T04:52:00.135Z,92.10
2017-09-21T04:54:28.496Z,92.00
2017-09-21T04:56:56.881Z,92.10
2017-09-21T04:59:25.249Z,92.10
2017-09-21T05:01:54.402Z,92.00
2017-09-21T05:04:22.762Z,92.00
2017-09-21T05:06:51.160Z,92.10
2017-09-21T05:09:19.749Z,91.80
2017-09-21T05:11:48.131Z,92.00
2017-09-21T05:14:16.487Z,92.20
2017-09-21T05:16:44.863Z,92.00
2017-09-21T05:19:13.273Z,92.00
2017-09-21T05:21:41.636Z,91.90
2017-09-21T05:24:11.508Z,91.80
2017-09-21T05:26:39.886Z,91.80
2017-09-21T05:29:08.449Z,91.80
2017-09-21T05:31:36.810Z,91.60
2017-09-21T05:34:04.983Z,91.70
2017-09-21T05:36:33.376Z,91.60
2017-09-21T05:39:01.736Z,91.60
2017-09-21T05:41:30.334Z,91.70
2017-09-21T05:43:58.713Z,91.80
2017-09-21T05:46:27.081Z,91.60
2017-09-21T05:48:55.426Z,91.60
2017-09-21T05:51:24.448Z,91.40
2017-09-21T05:53:53.060Z,91.70
2017-09-21T05:56:21.419Z,91.40
2017-09-21T05:58:49.787Z,91.50
2017-09-21T06:01:19.915Z,91.50
2017-09-21T06:03:48.310Z,91.50
2017-09-21T06:06:16.691Z,91.40
2017-09-21T06:08:45.231Z,91.30
2017-09-21T06:11:13.597Z,91.20
2017-09-21T06:13:41.966Z,91.10
2017-09-21T06:16:10.351Z,91.00
2017-09-21T06:18:38.374Z,90.90
2017-09-21T06:21:06.893Z,91.00
2017-09-21T06:23:36.969Z,90.70
2017-09-21T06:26:05.355Z,90.80
2017-09-21T06:28:33.711Z,90.70
2017-09-21T06:31:02.087Z,90.70
2017-09-21T06:33:30.489Z,90.70
2017-09-21T06:36:00.345Z,90.70
2017-09-21T06:38:28.737Z,90.70
2017-09-21T06:40:57.107Z,90.60
2017-09-21T06:43:25.497Z,90.50
2017-09-21T06:45:53.856Z,90.30
2017-09-21T06:48:22.041Z,90.20
2017-09-21T06:50:50.474Z,90.10
2017-09-21T06:53:18.839Z,89.90
2017-09-21T06:55:47.976Z,89.30
2017-09-21T06:58:16.335Z,89.30
2017-09-21T07:00:44.711Z,89.60
2017-09-21T07:03:12.882Z,89.40
2017-09-21T07:05:41.260Z,89.50
2017-09-21T07:08:09.625Z,89.30
2017-09-21T07:10:37.986Z,89.20
2017-09-21T07:13:06.347Z,89.30
2017-09-21T07:15:34.865Z,89.30
2017-09-21T07:18:06.296Z,88.80
2017-09-21T07:20:34.779Z,89.10
2017-09-21T07:23:03.231Z,88.90
2017-09-21T07:25:31.401Z,89.10
2017-09-21T07:28:00.740Z,89.30
2017-09-21T07:30:29.366Z,89.30
2017-09-21T07:32:57.538Z,89.00
2017-09-21T07:35:25.965Z,89.00
2017-09-21T07:37:54.341Z,88.80
2017-09-21T07:40:22.696Z,89.00
2017-09-21T07:42:51.836Z,89.10
2017-09-21T07:45:20.191Z,89.10
2017-09-21T07:47:48.666Z,88.50
2017-09-21T07:50:16.938Z,88.70
2017-09-21T07:52:45.107Z,88.00
2017-09-21T07:55:13.500Z,88.50
2017-09-21T07:57:42.104Z,88.60
2017-09-21T08:00:10.545Z,88.50
2017-09-21T08:02:38.978Z,88.20
2017-09-21T08:05:07.339Z,88.20
2017-09-21T08:07:35.706Z,87.80
2017-09-21T08:10:04.078Z,87.30
2017-09-21T08:12:32.442Z,87.30
2017-09-21T08:15:00.804Z,87.40
2017-09-21T08:17:29.238Z,87.40
2017-09-21T08:19:57.593Z,87.00
2017-09-21T08:22:26.178Z,86.20
2017-09-21T08:24:54.610Z,86.50
2017-09-21T08:27:23.297Z,86.40
2017-09-21T08:29:51.650Z,86.10
2017-09-21T08:32:20.015Z,86.50
2017-09-21T08:34:49.167Z,85.70
2017-09-21T08:37:17.522Z,85.70
2017-09-21T08:39:45.896Z,85.90
2017-09-21T08:42:14.265Z,85.80
2017-09-21T08:44:42.642Z,86.10
2017-09-21T08:47:11.014Z,85.30
2017-09-21T08:49:39.429Z,85.00
2017-09-21T08:52:08.095Z,85.10
2017-09-21T08:54:36.471Z,84.80
2017-09-21T08:57:04.856Z,84.50
2017-09-21T08:59:33.219Z,84.30
2017-09-21T09:02:01.599Z,83.80
2017-09-21T09:04:29.973Z,83.00
2017-09-21T09:06:58.346Z,82.10
2017-09-21T09:09:26.708Z,82.00
2017-09-21T09:11:55.096Z,82.20
2017-09-21T09:14:23.451Z,83.20
2017-09-21T09:16:51.829Z,82.20
2017-09-21T09:19:20.215Z,80.60
2017-09-21T09:21:48.846Z,80.40
2017-09-21T09:24:17.272Z,80.30
2017-09-21T09:26:45.637Z,80.30
2017-09-21T09:29:14.004Z,80.20
2017-09-21T09:31:42.491Z,80.20
2017-09-21T09:34:10.857Z,78.50
2017-09-21T09:36:39.980Z,77.40
2017-09-21T09:39:08.350Z,77.30
2017-09-21T09:41:36.701Z,77.20
2017-09-21T09:44:05.063Z,77.00
2017-09-21T09:46:33.422Z,77.70
2017-09-21T09:49:02.606Z,75.80
2017-09-21T09:51:30.980Z,75.80
2017-09-21T09:53:59.427Z,76.30
2017-09-21T09:56:27.788Z,77.20
2017-09-21T09:58:56.911Z,74.80
2017-09-21T10:01:25.306Z,74.70
2017-09-21T10:03:53.679Z,73.70
2017-09-21T10:06:22.094Z,73.60
2017-09-21T10:08:50.462Z,73.80
2017-09-21T10:11:18.903Z,73.30
2017-09-21T10:13:48.076Z,73.10
2017-09-21T10:16:16.473Z,73.00
2017-09-21T10:18:44.840Z,72.90
2017-09-21T10:21:12.860Z,71.50
2017-09-21T10:23:42.082Z,71.20
2017-09-21T10:26:10.433Z,71.10
2017-09-21T10:28:38.912Z,70.80
2017-09-21T10:31:08.062Z,70.60
2017-09-21T10:33:36.437Z,70.60
2017-09-21T10:36:04.802Z,69.80
2017-09-21T10:38:33.178Z,69.10
2017-09-21T10:41:01.546Z,69.50
2017-09-21T10:43:29.909Z,68.40
2017-09-21T10:45:58.389Z,67.50
2017-09-21T10:48:26.738Z,68.40
2017-09-21T10:50:55.904Z,68.80
2017-09-21T10:53:24.437Z,68.80
2017-09-21T10:55:52.807Z,67.50
2017-09-21T10:58:21.162Z,68.10
2017-09-21T11:00:50.113Z,66.80
2017-09-21T11:03:18.467Z,66.70
2017-09-21T11:05:46.931Z,65.70
2017-09-21T11:08:15.310Z,64.60
2017-09-21T11:10:43.681Z,63.60
2017-09-21T11:13:12.811Z,65.70
2017-09-21T11:15:41.164Z,65.60
2017-09-21T11:18:09.529Z,65.50
2017-09-21T11:20:38.111Z,65.00
2017-09-21T11:23:06.636Z,63.80
2017-09-21T11:25:35.167Z,64.20
2017-09-21T11:28:03.552Z,63.00
2017-09-21T11:30:31.985Z,62.20
2017-09-21T11:33:00.339Z,61.50
2017-09-21T11:35:29.020Z,61.90
2017-09-21T11:37:57.391Z,62.00
2017-09-21T11:40:25.761Z,61.60
2017-09-21T11:42:54.312Z,62.30
2017-09-21T11:45:22.693Z,62.40
2017-09-21T11:47:51.042Z,61.70
2017-09-21T11:50:19.404Z,61.30
2017-09-21T11:52:48.521Z,60.00
2017-09-21T11:55:16.890Z,59.90
2017-09-21T11:57:45.264Z,59.60
2017-09-21T12:00:13.482Z,59.40
2017-09-21T12:02:41.837Z,58.70
2017-09-21T12:05:10.208Z,58.30
2017-09-21T12:07:38.686Z,58.70
2017-09-21T12:10:06.928Z,59.20
2017-09-21T12:12:35.128Z,58.60
2017-09-21T12:15:03.568Z,57.70
2017-09-21T12:17:31.930Z,57.60
2017-09-21T12:20:00.283Z,58.70
2017-09-21T12:22:28.673Z,58.60
2017-09-21T12:24:57.037Z,57.80
2017-09-21T12:27:25.413Z,56.90
2017-09-21T12:29:53.764Z,57.00
2017-09-21T12:32:22.354Z,56.80
2017-09-21T12:34:50.747Z,55.00
2017-09-21T12:37:19.115Z,55.70
2017-09-21T12:39:47.741Z,54.50
2017-09-21T12:42:16.254Z,54.50
2017-09-21T12:44:44.598Z,54.00
2017-09-21T12:47:13.731Z,55.00
2017-09-21T12:49:42.207Z,55.00
2017-09-21T12:52:10.647Z,54.90
2017-09-21T12:54:39.003Z,54.60
2017-09-21T12:57:07.386Z,52.00
2017-09-21T12:59:35.753Z,53.60
2017-09-21T13:02:04.125Z,54.20
2017-09-21T13:04:32.496Z,53.70
2017-09-21T13:07:00.888Z,52.70
2017-09-21T13:09:29.271Z,52.50
2017-09-21T13:11:57.872Z,51.90
2017-09-21T13:14:26.270Z,51.80
2017-09-21T13:16:54.695Z,52.00
2017-09-21T13:19:23.073Z,51.00
2017-09-21T13:21:51.429Z,50.20
2017-09-21T13:24:19.616Z,51.40
2017-09-21T13:26:48.262Z,50.40
2017-09-21T13:29:16.463Z,49.70
2017-09-21T13:31:45.614Z,50.80
2017-09-21T13:34:13.995Z,50.40
2017-09-21T13:36:42.580Z,51.00
2017-09-21T13:39:10.935Z,50.30
2017-09-21T13:41:39.321Z,50.50
2017-09-21T13:44:07.671Z,50.30
2017-09-21T13:46:36.852Z,49.40
2017-09-21T13:49:05.376Z,49.40
2017-09-21T13:51:33.753Z,49.30
2017-09-21T13:54:01.920Z,49.50
2017-09-21T13:56:30.501Z,49.40
2017-09-21T13:58:58.845Z,48.90
2017-09-21T14:01:27.983Z,49.20
2017-09-21T14:03:56.820Z,49.20
2017-09-21T14:06:25.154Z,49.20
2017-09-21T14:08:53.613Z,49.40
2017-09-21T14:11:21.962Z,49.80
2017-09-21T14:13:50.324Z,49.60
2017-09-21T14:16:19.355Z,49.50
2017-09-21T14:18:47.730Z,49.40
2017-09-21T14:21:16.206Z,49.50
2017-09-21T14:23:44.605Z,49.70
2017-09-21T14:26:12.966Z,49.80
2017-09-21T14:28:41.332Z,49.90
2017-09-21T14:31:09.705Z,49.80
2017-09-21T14:33:37.882Z,49.60
2017-09-21T14:36:06.363Z,49.00
2017-09-21T14:38:34.539Z,49.40
2017-09-21T14:41:02.709Z,49.50
2017-09-21T14:43:30.878Z,50.10
2017-09-21T14:45:59.070Z,49.70
2017-09-21T14:48:27.276Z,50.20
2017-09-21T14:50:56.000Z,50.00
2017-09-21T14:53:24.476Z,48.70
2017-09-21T14:55:52.857Z,49.20
2017-09-21T14:58:21.283Z,49.20
2017-09-21T15:00:49.644Z,49.20
2017-09-21T15:03:18.011Z,49.50
2017-09-21T15:05:46.372Z,48.50
2017-09-21T15:08:14.745Z,48.60
2017-09-21T15:10:43.319Z,47.80
2017-09-21T15:13:11.686Z,47.70
2017-09-21T15:15:40.037Z,47.80
2017-09-21T15:18:09.172Z,47.70
2017-09-21T15:20:37.549Z,47.70
2017-09-21T15:23:05.908Z,47.50
2017-09-21T15:25:34.284Z,47.10
2017-09-21T15:28:02.647Z,47.30
2017-09-21T15:30:31.002Z,47.50
2017-09-21T15:32:59.365Z,47.70
2017-09-21T15:35:27.730Z,47.70
2017-09-21T15:37:56.131Z,47.10
2017-09-21T15:40:24.477Z,47.60
2017-09-21T15:42:53.458Z,48.00
2017-09-21T15:45:21.841Z,48.80
2017-09-21T15:47:51.291Z,48.90
2017-09-21T15:50:19.630Z,49.10
2017-09-21T15:52:47.996Z,49.10
2017-09-21T15:55:16.638Z,49.50
2017-09-21T15:57:45.010Z,49.50
2017-09-21T16:00:13.379Z,50.40
2017-09-21T16:02:41.913Z,51.20
2017-09-21T16:05:10.269Z,51.50
2017-09-21T16:07:38.829Z,50.90
2017-09-21T16:10:07.199Z,51.50
2017-09-21T16:12:35.247Z,51.60
2017-09-21T16:15:04.575Z,52.30
2017-09-21T16:17:32.947Z,52.30
2017-09-21T16:20:01.298Z,52.80
2017-09-21T16:22:30.258Z,53.60
2017-09-21T16:24:58.636Z,53.60
2017-09-21T16:27:27.043Z,53.70
2017-09-21T16:29:56.368Z,53.80
2017-09-21T16:32:24.846Z,53.80
2017-09-21T16:34:53.317Z,54.00
2017-09-21T16:37:21.675Z,54.10
2017-09-21T16:39:50.062Z,54.70
2017-09-21T16:42:18.654Z,54.60
2017-09-21T16:44:47.319Z,54.80
2017-09-21T16:47:16.633Z,54.40
2017-09-21T16:49:44.907Z,54.40
2017-09-21T16:52:13.268Z,54.10
2017-09-21T16:54:41.629Z,54.40
2017-09-21T16:57:10.136Z,55.20
2017-09-21T16:59:38.714Z,55.40
2017-09-21T17:02:07.196Z,55.50
2017-09-21T17:04:35.464Z,56.50
2017-09-21T17:07:03.831Z,56.70
2017-09-21T17:09:32.016Z,56.30
2017-09-21T17:12:00.393Z,56.50
2017-09-21T17:14:28.777Z,56.10
2017-09-21T17:16:57.140Z,56.90
2017-09-21T17:19:25.521Z,57.40
2017-09-21T17:21:53.896Z,58.20
2017-09-21T17:24:22.249Z,58.40
2017-09-21T17:26:50.724Z,58.10
2017-09-21T17:29:19.104Z,58.60
2017-09-21T17:31:47.460Z,58.90
2017-09-21T17:34:15.835Z,59.40
2017-09-21T17:36:44.225Z,58.80
2017-09-21T17:39:13.358Z,58.70
2017-09-21T17:41:41.706Z,58.70
2017-09-21T17:44:10.099Z,58.90
2017-09-21T17:46:38.276Z,59.50
2017-09-21T17:49:06.722Z,60.00
2017-09-21T17:51:35.842Z,60.10
2017-09-21T17:54:04.227Z,60.00
2017-09-21T17:56:32.620Z,60.40
2017-09-21T17:59:01.072Z,60.50
2017-09-21T18:01:29.418Z,60.80
2017-09-21T18:03:58.557Z,60.90
2017-09-21T18:06:26.949Z,60.90
2017-09-21T18:08:55.326Z,61.50
2017-09-21T18:11:24.379Z,61.70
2017-09-21T18:13:52.776Z,61.90
2017-09-21T18:16:21.158Z,61.90
2017-09-21T18:18:49.622Z,61.90
2017-09-21T18:21:17.985Z,62.90
2017-09-21T18:23:46.350Z,63.40
2017-09-21T18:26:14.821Z,63.30
2017-09-21T18:28:44.046Z,63.20
2017-09-21T18:31:12.435Z,63.20
2017-09-21T18:33:40.863Z,63.00
2017-09-21T18:36:09.268Z,63.00
2017-09-21T18:38:37.655Z,63.10
2017-09-21T18:41:06.058Z,63.10
2017-09-21T18:43:34.241Z,63.40
2017-09-21T18:46:02.845Z,63.90
2017-09-21T18:48:31.245Z,64.40
2017-09-21T18:50:59.630Z,65.50
2017-09-21T18:53:27.843Z,65.00
2017-09-21T18:55:56.218Z,64.80
2017-09-21T18:58:24.585Z,65.20
2017-09-21T19:00:52.926Z,65.70
2017-09-21T19:05:58.383Z,66.40
2017-09-21T19:08:26.972Z,66.10
2017-09-21T19:10:55.375Z,66.50
2017-09-21T19:13:23.753Z,67.30
2017-09-21T19:15:52.339Z,67.60
2017-09-21T19:18:20.734Z,67.90
2017-09-21T19:20:49.882Z,68.30
2017-09-21T19:23:18.288Z,68.20
2017-09-21T19:25:46.666Z,68.30
2017-09-21T19:28:14.874Z,68.70
2017-09-21T19:30:43.248Z,69.20
2017-09-21T19:33:11.871Z,69.40
2017-09-21T19:35:40.298Z,69.70
2017-09-21T19:38:09.439Z,70.80
2017-09-21T19:40:37.836Z,70.80
2017-09-21T19:43:06.275Z,71.10
2017-09-21T19:45:34.743Z,71.70
2017-09-21T19:48:03.182Z,71.80
2017-09-21T19:50:31.550Z,72.10
2017-09-21T19:52:59.915Z,72.30
2017-09-21T19:55:28.293Z,72.30
2017-09-21T19:57:56.659Z,72.80
2017-09-21T20:00:25.025Z,73.10
2017-09-21T20:02:53.444Z,73.60
2017-09-21T20:05:22.015Z,73.50
2017-09-21T20:07:50.366Z,73.80
2017-09-21T20:10:18.820Z,74.20
2017-09-21T20:12:47.194Z,74.40
2017-09-21T20:15:15.572Z,74.80
2017-09-21T20:17:43.921Z,74.90
2017-09-21T20:20:13.046Z,75.20
2017-09-21T20:22:41.405Z,75.20
2017-09-21T20:25:09.566Z,75.50
2017-09-21T20:27:37.933Z,76.00
2017-09-21T20:30:06.322Z,76.00
2017-09-21T20:32:34.814Z,76.40
2017-09-21T20:35:03.174Z,77.00
2017-09-21T20:37:31.576Z,76.60
2017-09-21T20:39:59.934Z,76.70
2017-09-21T20:42:28.328Z,76.50
2017-09-21T20:44:56.716Z,76.80
2017-09-21T20:47:25.072Z,77.00
2017-09-21T20:49:53.440Z,76.70
2017-09-21T20:52:21.882Z,77.00
2017-09-21T20:54:50.302Z,77.20
2017-09-21T20:57:18.692Z,77.70
2017-09-21T20:59:47.048Z,78.00
2017-09-21T21:02:15.518Z,78.10
2017-09-21T21:04:43.530Z,78.30
2017-09-21T21:07:11.895Z,78.30
2017-09-21T21:09:40.352Z,78.50
2017-09-21T21:12:08.803Z,78.40
2017-09-21T21:14:37.181Z,78.80
2017-09-21T21:17:05.556Z,78.90
2017-09-21T21:19:34.702Z,79.40
2017-09-21T21:22:03.066Z,79.30
2017-09-21T21:24:31.453Z,79.40
2017-09-21T21:26:59.829Z,79.30
2017-09-21T21:29:28.207Z,79.50
2017-09-21T21:31:56.627Z,79.80
2017-09-21T21:34:25.960Z,79.50
2017-09-21T21:36:54.552Z,79.50
2017-09-21T21:39:22.754Z,79.30
2017-09-21T21:41:51.114Z,79.50
2017-09-21T21:44:19.475Z,79.50
2017-09-21T21:46:48.675Z,79.20
2017-09-21T21:49:17.450Z,79.70
2017-09-21T21:51:45.940Z,79.50
2017-09-21T21:54:14.297Z,79.80
2017-09-21T21:56:42.680Z,79.90
2017-09-21T21:59:11.025Z,79.60
2017-09-21T22:01:39.422Z,79.70
2017-09-21T22:04:07.777Z,79.70
2017-09-21T22:06:36.487Z,79.60
2017-09-21T22:09:03.969Z,79.80
2017-09-21T22:11:33.042Z,80.00
2017-09-21T22:14:01.421Z,80.30
2017-09-21T22:16:29.778Z,80.10
2017-09-21T22:18:58.202Z,80.00
2017-09-21T22:21:26.636Z,80.20
2017-09-21T22:23:54.998Z,79.90
2017-09-21T22:26:23.489Z,80.40
2017-09-21T22:28:51.866Z,80.70
2017-09-21T22:31:20.308Z,80.80
2017-09-21T22:33:48.718Z,80.60
2017-09-21T22:36:17.077Z,80.70
2017-09-21T22:38:45.470Z,80.60
2017-09-21T22:41:13.849Z,80.60
2017-09-21T22:43:42.220Z,81.10
2017-09-21T22:46:10.611Z,81.20
2017-09-21T22:48:38.988Z,81.10
2017-09-21T22:51:07.360Z,81.00
2017-09-21T22:53:35.731Z,81.30
2017-09-21T22:56:03.923Z,81.20
2017-09-21T22:58:32.291Z,81.00
2017-09-21T23:01:00.679Z,81.70
2017-09-21T23:03:29.029Z,81.70
2017-09-21T23:05:57.502Z,81.80
2017-09-21T23:08:25.934Z,82.00
2017-09-21T23:10:54.316Z,82.00
2017-09-21T23:13:22.674Z,82.00
2017-09-21T23:15:51.058Z,82.70
2017-09-21T23:18:19.434Z,82.20
2017-09-21T23:20:47.807Z,82.00
2017-09-21T23:23:16.163Z,82.10
2017-09-21T23:25:44.548Z,82.40
2017-09-21T23:28:12.987Z,82.30
2017-09-21T23:30:41.373Z,82.40
2017-09-21T23:33:09.752Z,82.20
2017-09-21T23:35:38.105Z,82.10
2017-09-21T23:38:06.475Z,82.30
2017-09-21T23:40:34.868Z,82.40
2017-09-21T23:43:03.219Z,82.70
2017-09-21T23:45:31.663Z,82.40
2017-09-21T23:48:01.544Z,82.60
2017-09-21T23:50:29.912Z,82.70
2017-09-21T23:52:58.487Z,82.60
2017-09-21T23:55:26.846Z,82.30
2017-09-21T23:57:55.214Z,82.60
